createdAt,value
2022-07-27T00:01:09.845Z,5.40
2022-07-27T00:03:38.401Z,6.50
2022-07-27T00:06:06.417Z,5.82
2022-07-27T00:08:34.793Z,5.32
2022-07-27T00:11:02.744Z,6.22
2022-07-27T00:13:32.286Z,5.80
2022-07-27T00:16:00.410Z,5.45
2022-07-27T00:18:29.651Z,5.32
2022-07-27T00:20:57.420Z,5.13
2022-07-27T00:23:25.340Z,5.60
2022-07-27T00:25:53.121Z,5.82
2022-07-27T00:28:20.922Z,5.80
2022-07-27T00:30:48.704Z,5.53
2022-07-27T00:33:17.900Z,5.47
2022-07-27T00:35:48.089Z,5.20
2022-07-27T00:38:16.575Z,4.97
2022-07-27T00:40:45.126Z,5.78
2022-07-27T00:43:13.470Z,6.18
2022-07-27T00:45:41.737Z,6.65
2022-07-27T00:48:09.595Z,5.55
2022-07-27T00:50:38.618Z,6.65
2022-07-27T00:53:09.110Z,5.75
2022-07-27T00:55:37.757Z,5.72
2022-07-27T00:58:08.744Z,6.28
2022-07-27T01:00:37.745Z,6.07
2022-07-27T01:03:09.215Z,6.90
2022-07-27T01:05:42.332Z,7.50
2022-07-27T01:08:14.803Z,6.80
2022-07-27T01:10:43.768Z,5.85
2022-07-27T01:13:12.930Z,6.80
2022-07-27T01:15:41.983Z,6.20
2022-07-27T01:18:13.132Z,6.32
2022-07-27T01:20:42.559Z,5.72
2022-07-27T01:23:12.009Z,6.40
2022-07-27T01:25:42.589Z,6.25
2022-07-27T01:28:10.429Z,6.13
2022-07-27T01:30:38.193Z,5.80
2022-07-27T01:33:09.035Z,5.53
2022-07-27T01:35:38.969Z,6.20
2022-07-27T01:38:08.114Z,5.30
2022-07-27T01:40:39.749Z,5.70
2022-07-27T01:43:07.924Z,6.03
2022-07-27T01:45:35.964Z,6.82
2022-07-27T01:48:03.853Z,5.97
2022-07-27T01:50:31.902Z,6.30
2022-07-27T01:52:59.784Z,6.43
2022-07-27T01:55:35.714Z,5.85
2022-07-27T01:58:08.340Z,5.72
2022-07-27T02:00:36.822Z,5.50
2022-07-27T02:03:06.065Z,5.85
2022-07-27T02:05:34.228Z,6.80
2022-07-27T02:08:02.068Z,5.43
2022-07-27T02:10:30.095Z,5.72
2022-07-27T02:12:57.181Z,5.70
2022-07-27T02:15:27.999Z,5.45
2022-07-27T02:18:36.421Z,4.82
2022-07-27T02:20:58.757Z,4.80
2022-07-27T02:23:26.531Z,5.13
2022-07-27T02:25:54.586Z,4.55
2022-07-27T02:28:22.402Z,3.92
2022-07-27T02:30:51.577Z,4.05
2022-07-27T02:33:20.086Z,4.40
2022-07-27T02:35:48.892Z,2.70
2022-07-27T02:38:16.659Z,3.67
2022-07-27T02:40:44.768Z,3.40
2022-07-27T02:43:12.956Z,3.35
2022-07-27T02:45:40.727Z,3.00
2022-07-27T02:48:09.803Z,3.50
2022-07-27T02:50:37.670Z,3.13
2022-07-27T02:53:05.505Z,2.60
2022-07-27T02:55:33.447Z,3.00
2022-07-27T02:58:01.749Z,2.58
2022-07-27T03:00:29.694Z,2.38
2022-07-27T03:02:57.513Z,2.95
2022-07-27T03:05:26.759Z,2.40
2022-07-27T03:07:54.527Z,2.35
2022-07-27T03:10:22.413Z,2.80
2022-07-27T03:12:50.209Z,2.47
2022-07-27T03:15:18.033Z,2.17
2022-07-27T03:17:46.125Z,2.20
2022-07-27T03:20:15.619Z,1.90
2022-07-27T03:22:44.776Z,2.25
2022-07-27T03:25:12.679Z,2.40
2022-07-27T03:27:40.535Z,1.85
2022-07-27T03:30:09.684Z,2.00
2022-07-27T03:32:39.128Z,2.47
2022-07-27T03:35:08.549Z,2.03
2022-07-27T03:37:36.491Z,2.45
2022-07-27T03:40:06.763Z,1.73
2022-07-27T03:42:34.741Z,1.90
2022-07-27T03:45:02.923Z,2.20
2022-07-27T03:47:30.792Z,1.58
2022-07-27T03:49:58.556Z,1.60
2022-07-27T03:52:26.475Z,1.60
2022-07-27T03:54:54.353Z,1.88
2022-07-27T03:57:23.528Z,2.50
2022-07-27T03:59:51.358Z,1.83
2022-07-27T04:02:19.388Z,1.65
2022-07-27T04:04:47.246Z,1.40
2022-07-27T04:07:15.216Z,2.03
2022-07-27T04:09:43.254Z,1.80
2022-07-27T04:12:14.535Z,2.00
2022-07-27T04:14:46.792Z,1.70
2022-07-27T04:17:53.497Z,1.58
2022-07-27T04:20:02.717Z,2.00
2022-07-27T04:22:30.606Z,1.63
2022-07-27T04:24:58.474Z,1.63
2022-07-27T04:27:26.507Z,1.90
2022-07-27T04:29:55.759Z,1.70
2022-07-27T04:32:24.394Z,1.40
2022-07-27T04:34:53.211Z,1.40
2022-07-27T04:37:21.182Z,1.85
2022-07-27T04:39:49.426Z,1.95
2022-07-27T04:42:17.428Z,1.60
2022-07-27T04:44:45.368Z,2.50
2022-07-27T04:47:14.679Z,1.52
2022-07-27T04:49:42.488Z,1.27
2022-07-27T04:52:10.279Z,1.70
2022-07-27T04:54:38.235Z,1.50
2022-07-27T04:57:06.102Z,2.03
2022-07-27T04:59:33.899Z,1.60
2022-07-27T05:02:01.764Z,1.88
2022-07-27T05:04:31.054Z,1.75
2022-07-27T05:06:59.146Z,1.50
2022-07-27T05:09:27.014Z,1.13
2022-07-27T05:11:55.109Z,1.88
2022-07-27T05:14:23.334Z,1.40
2022-07-27T05:16:51.445Z,1.58
2022-07-27T05:19:19.300Z,1.90
2022-07-27T05:21:48.411Z,1.38
2022-07-27T05:24:16.308Z,1.70
2022-07-27T05:26:45.267Z,1.58
2022-07-27T05:29:13.325Z,1.42
2022-07-27T05:31:42.114Z,1.60
2022-07-27T05:34:10.855Z,1.63
2022-07-27T05:36:38.613Z,1.50
2022-07-27T05:39:13.257Z,2.00
2022-07-27T05:41:41.500Z,1.77
2022-07-27T05:44:09.399Z,1.35
2022-07-27T05:46:37.330Z,1.25
2022-07-27T05:49:05.876Z,1.60
2022-07-27T05:51:33.865Z,1.95
2022-07-27T05:54:01.744Z,2.05
2022-07-27T05:56:31.086Z,1.40
2022-07-27T05:59:01.640Z,1.50
2022-07-27T06:01:32.969Z,1.67
2022-07-27T06:04:00.892Z,1.70
2022-07-27T06:06:46.597Z,3.80
2022-07-27T06:09:14.987Z,1.70
2022-07-27T06:11:44.636Z,2.17
2022-07-27T06:14:12.625Z,1.58
2022-07-27T06:16:40.549Z,1.58
2022-07-27T06:19:08.641Z,1.60
2022-07-27T06:21:36.628Z,3.15
2022-07-27T06:24:04.986Z,1.55
2022-07-27T06:26:32.813Z,1.25
2022-07-27T06:29:02.011Z,1.65
2022-07-27T06:31:35.570Z,1.73
2022-07-27T06:34:08.164Z,1.60
2022-07-27T06:36:42.477Z,2.38
2022-07-27T06:39:10.653Z,1.30
2022-07-27T06:41:38.692Z,1.50
2022-07-27T06:44:08.051Z,1.50
2022-07-27T06:46:36.799Z,1.70
2022-07-27T06:49:04.638Z,1.60
2022-07-27T06:51:32.746Z,2.33
2022-07-27T06:54:00.519Z,2.72
2022-07-27T06:56:28.307Z,1.90
2022-07-27T06:58:56.724Z,2.03
2022-07-27T07:01:26.679Z,2.40
2022-07-27T07:03:56.181Z,1.63
2022-07-27T07:06:24.809Z,1.90
2022-07-27T07:08:52.699Z,1.52
2022-07-27T07:11:20.993Z,1.92
2022-07-27T07:13:48.973Z,1.40
2022-07-27T07:16:17.359Z,2.15
2022-07-27T07:18:51.724Z,1.67
2022-07-27T07:21:20.604Z,2.55
2022-07-27T07:23:48.427Z,1.65
2022-07-27T07:26:16.236Z,1.92
2022-07-27T07:28:44.222Z,1.75
2022-07-27T07:31:12.150Z,1.58
2022-07-27T07:33:41.410Z,2.15
2022-07-27T07:36:13.400Z,1.42
2022-07-27T07:38:43.022Z,2.03
2022-07-27T07:41:11.019Z,1.50
2022-07-27T07:43:39.813Z,1.65
2022-07-27T07:46:08.686Z,1.77
2022-07-27T07:48:36.649Z,2.05
2022-07-27T07:51:04.670Z,1.90
2022-07-27T07:53:39.183Z,2.25
2022-07-27T07:56:09.208Z,1.95
2022-07-27T07:58:37.149Z,1.80
2022-07-27T08:01:05.049Z,2.25
2022-07-27T08:03:32.990Z,2.10
2022-07-27T08:06:01.321Z,2.97
2022-07-27T08:08:30.187Z,2.47
2022-07-27T08:10:59.399Z,2.03
2022-07-27T08:13:27.366Z,2.10
2022-07-27T08:15:55.340Z,1.77
2022-07-27T08:18:23.312Z,2.65
2022-07-27T08:20:51.178Z,2.00
2022-07-27T08:23:19.136Z,2.42
2022-07-27T08:25:47.284Z,1.83
2022-07-27T08:28:16.689Z,2.10
2022-07-27T08:30:46.579Z,2.42
2022-07-27T08:33:15.754Z,1.75
2022-07-27T08:35:44.477Z,2.10
2022-07-27T08:38:12.652Z,1.98
2022-07-27T08:40:44.530Z,1.65
2022-07-27T08:43:21.836Z,1.88
2022-07-27T08:45:56.765Z,1.70
2022-07-27T08:48:26.100Z,2.45
2022-07-27T08:50:54.411Z,2.00
2022-07-27T08:53:23.470Z,1.60
2022-07-27T08:55:51.489Z,1.40
2022-07-27T08:58:19.499Z,1.40
2022-07-27T09:00:49.923Z,1.38
2022-07-27T09:03:21.689Z,1.20
2022-07-27T09:05:52.318Z,1.40
2022-07-27T09:08:24.194Z,1.50
2022-07-27T09:10:54.557Z,1.88
2022-07-27T09:13:25.363Z,1.42
2022-07-27T09:16:16.920Z,1.10
2022-07-27T09:18:44.120Z,1.25
2022-07-27T09:21:14.714Z,1.58
2022-07-27T09:23:44.293Z,1.33
2022-07-27T09:26:30.661Z,1.30
2022-07-27T09:29:01.697Z,1.48
2022-07-27T09:31:31.110Z,1.45
2022-07-27T09:34:04.021Z,1.80
2022-07-27T09:36:32.320Z,1.65
2022-07-27T09:39:03.862Z,1.17
2022-07-27T09:41:43.355Z,1.63
2022-07-27T09:44:31.153Z,1.45
2022-07-27T09:47:00.999Z,2.40
2022-07-27T09:49:32.894Z,2.28
2022-07-27T09:52:02.844Z,1.50
2022-07-27T09:54:44.224Z,2.00
2022-07-27T09:57:12.291Z,1.50
2022-07-27T09:59:40.248Z,1.50
2022-07-27T10:02:08.869Z,2.13
2022-07-27T10:04:38.249Z,1.13
2022-07-27T10:07:10.874Z,1.50
2022-07-27T10:09:40.984Z,1.33
2022-07-27T10:12:09.740Z,1.65
2022-07-27T10:14:37.773Z,1.65
2022-07-27T10:17:07.554Z,1.75
2022-07-27T10:19:45.825Z,1.50
2022-07-27T10:22:14.273Z,1.25
2022-07-27T10:24:42.273Z,2.10
2022-07-27T10:27:22.184Z,1.55
2022-07-27T10:29:51.649Z,1.35
2022-07-27T10:32:26.154Z,1.50
2022-07-27T10:34:56.483Z,1.70
2022-07-27T10:37:30.839Z,1.80
2022-07-27T10:40:17.732Z,1.38
2022-07-27T10:42:53.528Z,2.35
2022-07-27T10:45:23.234Z,1.48
2022-07-27T10:47:52.572Z,1.50
2022-07-27T10:50:29.763Z,1.67
2022-07-27T10:53:00.311Z,2.25
2022-07-27T10:55:48.162Z,1.63
2022-07-27T10:58:47.759Z,1.35
2022-07-27T11:01:16.767Z,2.45
2022-07-27T11:03:54.238Z,1.55
2022-07-27T11:06:41.970Z,1.55
2022-07-27T11:12:04.790Z,1.40
2022-07-27T11:14:32.825Z,1.65
2022-07-27T11:17:24.492Z,1.50
2022-07-27T11:19:56.956Z,1.65
2022-07-27T11:25:23.796Z,1.85
2022-07-27T11:27:52.512Z,1.30
2022-07-27T11:30:25.165Z,1.35
2022-07-27T11:32:54.607Z,2.05
2022-07-27T11:35:24.107Z,1.73
2022-07-27T11:38:02.406Z,1.30
2022-07-27T11:43:34.056Z,2.08
2022-07-27T11:46:15.596Z,1.52
2022-07-27T11:49:11.032Z,1.48
2022-07-27T11:51:42.725Z,1.38
2022-07-27T11:54:14.205Z,1.40
2022-07-27T11:56:44.398Z,1.50
2022-07-27T11:59:15.222Z,2.08
2022-07-27T12:01:46.603Z,1.50
2022-07-27T12:04:18.775Z,1.90
2022-07-27T12:06:50.144Z,1.50
2022-07-27T12:09:19.505Z,1.83
2022-07-27T12:11:50.357Z,1.65
2022-07-27T12:14:19.074Z,1.10
2022-07-27T12:16:47.114Z,1.38
2022-07-27T12:19:23.850Z,1.50
2022-07-27T12:21:55.366Z,2.20
2022-07-27T12:24:34.704Z,2.25
2022-07-27T12:27:07.533Z,1.85
2022-07-27T12:29:55.528Z,1.35
2022-07-27T12:32:25.130Z,1.55
2022-07-27T12:34:54.696Z,1.23
2022-07-27T12:37:23.348Z,1.08
2022-07-27T12:39:52.552Z,1.52
2022-07-27T12:42:20.492Z,1.60
2022-07-27T12:44:48.523Z,1.20
2022-07-27T12:47:34.154Z,1.15
2022-07-27T12:50:04.657Z,1.25
2022-07-27T12:52:33.846Z,1.50
2022-07-27T12:55:03.910Z,1.17
2022-07-27T12:57:53.967Z,1.45
2022-07-27T13:00:20.395Z,1.00
2022-07-27T13:02:48.320Z,1.52
2022-07-27T13:05:16.571Z,1.25
2022-07-27T13:07:47.747Z,1.13
2022-07-27T13:10:18.796Z,1.30
2022-07-27T13:12:47.842Z,0.95
2022-07-27T13:15:16.833Z,1.23
2022-07-27T13:17:45.883Z,1.00
2022-07-27T13:20:15.171Z,1.17
2022-07-27T13:22:43.570Z,1.25
2022-07-27T13:25:15.505Z,1.77
2022-07-27T13:27:47.085Z,1.02
2022-07-27T13:30:16.389Z,1.23
2022-07-27T13:32:47.155Z,1.38
2022-07-27T13:35:16.633Z,2.47
2022-07-27T13:37:45.133Z,1.63
2022-07-27T13:40:14.199Z,1.52
2022-07-27T13:42:41.953Z,1.15
2022-07-27T13:45:12.186Z,1.15
2022-07-27T13:47:41.360Z,1.23
2022-07-27T13:50:17.106Z,1.40
2022-07-27T13:52:46.704Z,1.00
2022-07-27T13:55:15.675Z,2.53
2022-07-27T13:57:43.674Z,1.23
2022-07-27T14:00:14.922Z,1.20
2022-07-27T14:02:43.314Z,1.10
2022-07-27T14:05:13.034Z,1.20
2022-07-27T14:07:42.541Z,1.73
2022-07-27T14:10:30.154Z,1.15
2022-07-27T14:12:59.225Z,1.35
2022-07-27T14:15:28.872Z,1.00
2022-07-27T14:17:56.755Z,1.58
2022-07-27T14:20:24.833Z,1.20
2022-07-27T14:22:52.806Z,2.38
2022-07-27T14:25:20.645Z,1.35
2022-07-27T14:27:48.519Z,1.40
2022-07-27T14:30:20.764Z,1.30
2022-07-27T14:32:51.315Z,0.93
2022-07-27T14:35:21.683Z,1.10
2022-07-27T14:37:49.790Z,1.50
2022-07-27T14:40:17.621Z,1.75
2022-07-27T14:42:45.429Z,1.10
2022-07-27T14:45:13.383Z,1.33
2022-07-27T14:47:41.320Z,1.33
2022-07-27T14:50:10.736Z,1.55
2022-07-27T14:52:38.805Z,1.40
2022-07-27T14:55:08.039Z,1.48
2022-07-27T14:57:35.915Z,1.60
2022-07-27T15:00:10.214Z,1.25
2022-07-27T15:02:38.440Z,2.00
2022-07-27T15:05:07.759Z,1.90
2022-07-27T15:07:37.069Z,1.27
2022-07-27T15:10:08.237Z,1.65
2022-07-27T15:12:38.023Z,2.20
2022-07-27T15:15:08.444Z,1.20
2022-07-27T15:17:37.662Z,1.50
2022-07-27T15:20:08.196Z,1.63
2022-07-27T15:22:37.840Z,1.67
2022-07-27T15:25:07.560Z,1.42
2022-07-27T15:27:39.959Z,1.83
2022-07-27T15:30:08.838Z,2.25
2022-07-27T15:32:37.089Z,1.42
2022-07-27T15:35:06.733Z,2.10
2022-07-27T15:37:34.645Z,2.00
2022-07-27T15:40:20.336Z,1.67
2022-07-27T15:42:48.248Z,1.92
2022-07-27T15:45:16.432Z,2.17
2022-07-27T15:47:47.424Z,1.25
2022-07-27T15:50:18.433Z,2.10
2022-07-27T15:52:46.217Z,1.60
2022-07-27T15:55:16.646Z,1.90
2022-07-27T15:57:44.925Z,1.25
2022-07-27T16:00:13.874Z,2.08
2022-07-27T16:02:41.688Z,1.58
2022-07-27T16:05:10.192Z,1.10
2022-07-27T16:07:41.419Z,1.52
2022-07-27T16:10:10.680Z,1.58
2022-07-27T16:12:39.893Z,1.42
2022-07-27T16:15:08.946Z,1.60
2022-07-27T16:17:37.670Z,1.50
2022-07-27T16:20:06.930Z,1.10
2022-07-27T16:22:37.928Z,1.45
2022-07-27T16:25:06.662Z,1.17
2022-07-27T16:27:34.550Z,1.25
2022-07-27T16:30:04.924Z,1.23
2022-07-27T16:32:34.233Z,1.40
2022-07-27T16:35:03.516Z,1.02
2022-07-27T16:37:38.105Z,0.90
2022-07-27T16:40:07.412Z,0.95
2022-07-27T16:42:38.089Z,1.13
2022-07-27T16:45:09.478Z,1.30
2022-07-27T16:47:37.417Z,1.08
2022-07-27T16:50:08.612Z,1.58
2022-07-27T16:52:36.578Z,1.13
2022-07-27T16:55:05.321Z,1.10
2022-07-27T16:57:33.224Z,1.25
2022-07-27T17:00:01.189Z,1.17
2022-07-27T17:02:31.215Z,1.27
2022-07-27T17:04:58.953Z,1.00
2022-07-27T17:07:27.252Z,1.05
2022-07-27T17:09:55.111Z,1.30
2022-07-27T17:12:23.537Z,1.30
2022-07-27T17:14:51.802Z,1.60
2022-07-27T17:17:19.663Z,1.15
2022-07-27T17:19:48.950Z,1.20
2022-07-27T17:22:16.815Z,1.40
2022-07-27T17:24:44.798Z,1.27
2022-07-27T17:27:12.645Z,1.20
2022-07-27T17:29:40.753Z,0.80
2022-07-27T17:32:09.262Z,1.10
2022-07-27T17:34:38.102Z,1.25
2022-07-27T17:37:07.272Z,1.33
2022-07-27T17:39:35.409Z,1.10
2022-07-27T17:42:03.382Z,1.80
2022-07-27T17:44:32.296Z,0.90
2022-07-27T17:47:01.114Z,1.35
2022-07-27T17:49:29.339Z,1.08
2022-07-27T17:51:57.375Z,1.95
2022-07-27T17:54:27.352Z,1.20
2022-07-27T17:56:55.191Z,1.13
2022-07-27T17:59:38.869Z,1.02
2022-07-27T18:02:07.409Z,1.10
2022-07-27T18:04:39.213Z,2.20
2022-07-27T18:07:07.757Z,0.98
2022-07-27T18:09:36.988Z,1.17
2022-07-27T18:12:05.497Z,1.45
2022-07-27T18:14:33.294Z,1.10
2022-07-27T18:17:01.386Z,1.40
2022-07-27T18:19:29.547Z,1.27
2022-07-27T18:21:57.488Z,0.93
2022-07-27T18:24:25.350Z,1.27
2022-07-27T18:26:59.361Z,1.60
2022-07-27T18:29:27.316Z,1.30
2022-07-27T18:31:56.696Z,1.27
2022-07-27T18:34:24.954Z,1.13
2022-07-27T18:36:52.817Z,1.40
2022-07-27T18:39:22.178Z,1.13
2022-07-27T18:41:54.795Z,1.15
2022-07-27T18:44:22.543Z,1.10
2022-07-27T18:46:50.321Z,1.25
2022-07-27T18:49:18.426Z,1.40
2022-07-27T18:51:46.655Z,1.60
2022-07-27T18:54:14.348Z,1.77
2022-07-27T18:56:42.130Z,0.95
2022-07-27T18:59:11.562Z,1.40
2022-07-27T19:01:39.857Z,2.13
2022-07-27T19:04:08.165Z,1.92
2022-07-27T19:06:35.975Z,1.45
2022-07-27T19:09:04.976Z,1.95
2022-07-27T19:11:32.936Z,2.58
2022-07-27T19:14:00.703Z,1.95
2022-07-27T19:16:29.959Z,2.03
2022-07-27T19:18:58.788Z,1.20
2022-07-27T19:21:26.555Z,1.52
2022-07-27T19:23:54.956Z,1.40
2022-07-27T19:26:22.864Z,1.95
2022-07-27T19:28:50.872Z,1.50
2022-07-27T19:31:22.485Z,2.20
2022-07-27T19:33:56.192Z,1.35
2022-07-27T19:36:24.215Z,1.70
2022-07-27T19:38:52.091Z,1.30
2022-07-27T19:41:20.206Z,1.40
2022-07-27T19:43:48.179Z,1.52
2022-07-27T19:46:16.167Z,1.05
2022-07-27T19:48:44.040Z,1.83
2022-07-27T19:51:13.339Z,1.17
2022-07-27T19:53:41.225Z,1.40
2022-07-27T19:56:12.103Z,1.40
2022-07-27T19:58:39.881Z,1.40
2022-07-27T20:01:09.358Z,1.40
2022-07-27T20:03:51.997Z,1.40
2022-07-27T20:06:23.773Z,1.48
2022-07-27T20:08:55.704Z,1.92
2022-07-27T20:11:23.638Z,1.70
2022-07-27T20:13:51.450Z,1.75
2022-07-27T20:16:19.628Z,1.75
2022-07-27T20:18:47.406Z,2.10
2022-07-27T20:21:20.763Z,1.50
2022-07-27T20:23:52.802Z,1.80
2022-07-27T20:26:20.595Z,1.75
2022-07-27T20:28:49.841Z,1.80
2022-07-27T20:31:18.592Z,1.73
2022-07-27T20:33:48.068Z,1.67
2022-07-27T20:36:16.385Z,1.83
2022-07-27T20:38:44.400Z,2.28
2022-07-27T20:41:13.488Z,1.35
2022-07-27T20:43:41.341Z,2.22
2022-07-27T20:46:09.251Z,1.90
2022-07-27T20:48:38.263Z,2.90
2022-07-27T20:51:06.366Z,2.00
2022-07-27T20:53:34.192Z,1.40
2022-07-27T20:56:02.101Z,1.77
2022-07-27T20:58:31.618Z,1.55
2022-07-27T21:00:59.854Z,1.70
2022-07-27T21:03:27.646Z,1.80
2022-07-27T21:05:55.647Z,1.98
2022-07-27T21:08:23.386Z,1.55
2022-07-27T21:10:51.230Z,1.83
2022-07-27T21:13:19.109Z,2.55
2022-07-27T21:15:48.404Z,1.50
2022-07-27T21:18:16.176Z,2.10
2022-07-27T21:20:44.115Z,2.08
2022-07-27T21:23:29.810Z,2.60
2022-07-27T21:25:57.702Z,1.73
2022-07-27T21:28:26.310Z,1.60
2022-07-27T21:30:55.472Z,2.30
2022-07-27T21:33:25.713Z,1.77
2022-07-27T21:35:54.409Z,2.05
2022-07-27T21:38:22.201Z,2.10
2022-07-27T21:40:50.159Z,1.75
2022-07-27T21:43:17.965Z,1.63
2022-07-27T21:45:49.482Z,1.98
2022-07-27T21:48:19.353Z,1.73
2022-07-27T21:50:47.137Z,1.90
2022-07-27T21:53:14.873Z,2.38
2022-07-27T21:55:42.670Z,1.90
2022-07-27T21:58:12.248Z,1.77
2022-07-27T22:00:40.549Z,2.42
2022-07-27T22:03:09.271Z,1.70
2022-07-27T22:05:38.448Z,1.60
2022-07-27T22:08:06.292Z,1.90
2022-07-27T22:10:34.127Z,2.85
2022-07-27T22:13:01.981Z,2.60
2022-07-27T22:15:29.779Z,2.45
2022-07-27T22:17:57.705Z,1.90
2022-07-27T22:20:25.464Z,1.63
2022-07-27T22:22:54.574Z,1.80
2022-07-27T22:25:22.520Z,1.98
2022-07-27T22:27:50.601Z,2.00
2022-07-27T22:30:18.515Z,2.13
2022-07-27T22:32:47.151Z,2.50
2022-07-27T22:35:15.698Z,2.63
2022-07-27T22:37:44.424Z,2.95
2022-07-27T22:40:13.831Z,2.40
2022-07-27T22:42:43.909Z,2.50
2022-07-27T22:45:12.717Z,2.78
2022-07-27T22:47:40.481Z,2.42
2022-07-27T22:50:13.331Z,1.90
2022-07-27T22:52:45.958Z,2.05
2022-07-27T22:55:15.175Z,1.58
2022-07-27T22:57:43.013Z,2.13
2022-07-27T23:00:12.398Z,2.13
2022-07-27T23:02:40.212Z,1.95
2022-07-27T23:05:08.668Z,2.15
2022-07-27T23:07:37.991Z,2.40
2022-07-27T23:10:06.672Z,2.20
2022-07-27T23:12:35.766Z,1.98
2022-07-27T23:15:03.619Z,2.00
2022-07-27T23:17:31.634Z,1.70
2022-07-27T23:19:59.416Z,2.22
2022-07-27T23:22:27.173Z,2.38
2022-07-27T23:24:55.128Z,2.60
2022-07-27T23:27:24.291Z,2.80
2022-07-27T23:29:53.369Z,2.40
2022-07-27T23:32:22.114Z,2.60
2022-07-27T23:34:50.423Z,2.40
2022-07-27T23:37:18.590Z,2.00
2022-07-27T23:39:46.377Z,2.13
2022-07-27T23:42:14.169Z,2.10
2022-07-27T23:44:41.962Z,2.60
2022-07-27T23:47:13.188Z,2.17
2022-07-27T23:49:41.233Z,2.00
2022-07-27T23:52:08.985Z,2.03
2022-07-27T23:54:36.870Z,2.15
2022-07-27T23:57:05.142Z,2.10
2022-07-27T23:59:32.925Z,2.70
